Time;durP1;ratioP1;P1;durP2;ratioP2;P2;SDS_P1;SDS_P2;PMS_P1;PMS_P2;Temp;Humidity;BMP_temperature;BMP_pressure;BME280_temperature;BME280_humidity;BME280_pressure;Samples;Min_cycle;Max_cycle;Signal;HPM_P1;HPM_P2
2021/12/11 00:03:18;;;;;;;16.23;8.17;;;;;;;6.64;100.00;100782.88;31256444;28;20045;-72
2021/12/11 00:18:24;;;;;;;19.87;8.90;;;;;;;6.65;100.00;100778.25;31268006;28;20053;-72
2021/12/11 00:33:32;;;;;;;14.83;7.53;;;;;;;6.61;100.00;100772.88;31276426;28;20061;-72
2021/12/11 00:48:34;;;;;;;16.57;8.53;;;;;;;6.55;100.00;100774.38;31253051;28;20101;-72
2021/12/11 01:03:48;;;;;;;19.03;8.53;;;;;;;6.46;100.00;100755.78;31258995;28;20049;-73
2021/12/11 01:18:58;;;;;;;13.87;7.47;;;;;;;6.43;100.00;100740.34;31280706;28;20080;-72
2021/12/11 01:34:01;;;;;;;18.73;8.17;;;;;;;6.30;100.00;100766.06;31258420;28;20056;-73
2021/12/11 01:49:07;;;;;;;22.80;9.73;;;;;;;6.25;100.00;100712.47;31260998;28;20049;-74
2021/12/11 02:04:11;;;;;;;24.13;10.57;;;;;;;6.25;100.00;100719.81;31254805;28;20443;-73
2021/12/11 02:19:30;;;;;;;25.10;10.00;;;;;;;6.16;100.00;100728.19;31252702;28;20054;-74
2021/12/11 02:34:35;;;;;;;21.63;9.87;;;;;;;6.04;100.00;100745.44;31253314;28;20108;-72
2021/12/11 02:49:52;;;;;;;21.63;9.93;;;;;;;5.95;100.00;100733.41;31256221;28;20128;-74
2021/12/11 03:05:04;;;;;;;;;;;;;;;5.72;100.00;100712.75;31271570;28;20115;-72
2021/12/11 03:20:11;;;;;;;21.33;9.73;;;;;;;5.57;100.00;100721.06;31268232;28;19929;-71
2021/12/11 03:35:13;;;;;;;19.93;9.27;;;;;;;5.43;100.00;100705.56;31271654;28;20049;-73
2021/12/11 03:50:17;;;;;;;20.30;8.20;;;;;;;5.23;100.00;100741.84;31267861;28;20049;-73
2021/12/11 04:05:21;;;;;;;16.07;7.37;;;;;;;5.17;100.00;100708.31;31266238;28;20053;-73
2021/12/11 04:20:26;;;;;;;14.90;7.47;;;;;;;4.93;100.00;100710.34;31268173;28;20067;-72
2021/12/11 04:35:30;;;;;;;18.47;7.80;;;;;;;4.78;100.00;100713.97;31295169;28;20079;-72
2021/12/11 04:50:48;;;;;;;12.83;5.87;;;;;;;4.67;100.00;100686.16;31262603;28;20064;-73
2021/12/11 05:21:15;;;;;;;10.73;5.57;;;;;;;4.34;100.00;100709.13;31263654;28;20052;-72
2021/12/11 05:36:19;;;;;;;13.23;6.27;;;;;;;4.24;100.00;100711.66;31258052;28;20160;-75
2021/12/11 05:51:23;;;;;;;12.13;5.83;;;;;;;4.20;100.00;100778.78;31258038;28;20046;-73
2021/12/11 06:06:25;;;;;;;12.03;5.63;;;;;;;4.13;100.00;100789.41;31253719;28;20091;-73
2021/12/11 06:21:27;;;;;;;14.27;6.70;;;;;;;4.15;100.00;100842.78;31256580;28;20053;-73
2021/12/11 06:36:29;;;;;;;12.93;6.50;;;;;;;4.71;100.00;100816.88;31272744;28;20061;-73
2021/12/11 06:51:32;;;;;;;13.97;6.37;;;;;;;4.61;100.00;100839.00;31276099;28;20060;-73
2021/12/11 07:06:38;;;;;;;17.67;5.80;;;;;;;4.40;100.00;100831.34;31279030;28;20053;-74
2021/12/11 07:21:41;;;;;;;11.57;6.07;;;;;;;4.36;100.00;100852.00;31298216;28;20068;-76
2021/12/11 07:36:50;;;;;;;15.30;7.23;;;;;;;4.62;100.00;100829.00;31328126;28;20053;-77
2021/12/11 07:51:52;;;;;;;9.90;5.13;;;;;;;5.01;100.00;100834.97;31351437;28;20049;-77
2021/12/11 08:06:54;;;;;;;14.97;7.07;;;;;;;4.91;100.00;100809.47;31344262;28;20055;-77
2021/12/11 08:21:59;;;;;;;16.67;7.43;;;;;;;6.07;97.63;100805.91;31298102;28;20521;-77
2021/12/11 08:37:05;;;;;;;12.20;5.83;;;;;;;6.35;95.99;100819.66;31324292;28;20049;-79
2021/12/11 08:52:15;;;;;;;11.20;6.78;;;;;;;5.76;99.34;100815.94;31348884;28;20056;-78
2021/12/11 09:07:26;;;;;;;8.27;5.20;;;;;;;5.77;99.87;100836.38;31327682;28;20053;-78
2021/12/11 09:22:37;;;;;;;12.83;6.20;;;;;;;5.93;100.00;100813.84;31281767;28;20076;-78
2021/12/11 09:37:42;;;;;;;16.27;7.13;;;;;;;5.92;99.58;100833.84;31293312;28;20425;-78
2021/12/11 09:52:46;;;;;;;13.57;5.70;;;;;;;6.03;100.00;100840.13;31305383;28;20059;-78
2021/12/11 10:08:02;;;;;;;13.53;6.00;;;;;;;6.36;97.36;100812.34;31325194;28;20045;-77
2021/12/11 10:23:07;;;;;;;10.63;4.87;;;;;;;6.69;96.95;100806.06;31347770;28;20399;-78
2021/12/11 10:38:10;;;;;;;7.07;4.50;;;;;;;6.65;97.19;100865.38;31347277;28;20057;-76
2021/12/11 10:53:19;;;;;;;8.17;4.50;;;;;;;6.44;97.72;100881.38;31324292;28;20458;-76
2021/12/11 11:08:22;;;;;;;14.20;4.60;;;;;;;6.31;97.42;100888.97;31314779;28;20044;-75
2021/12/11 11:23:25;;;;;;;10.97;5.17;;;;;;;6.15;97.18;100902.66;31336752;28;20057;-74
2021/12/11 11:38:34;;;;;;;10.57;5.30;;;;;;;5.97;97.54;100900.91;31337372;28;20049;-76
2021/12/11 11:53:36;;;;;;;11.20;6.17;;;;;;;5.82;100.00;100906.09;31323308;28;20056;-75
2021/12/11 12:08:42;;;;;;;12.23;6.40;;;;;;;5.63;100.00;100957.41;31339856;28;20049;-76
2021/12/11 12:23:45;;;;;;;15.33;7.43;;;;;;;5.38;100.00;100961.66;31340474;28;20089;-76
2021/12/11 12:38:48;;;;;;;14.97;7.80;;;;;;;5.34;100.00;100993.13;31341276;28;20088;-77
2021/12/11 12:53:51;;;;;;;19.60;8.67;;;;;;;5.16;100.00;100992.88;31321341;28;20492;-77
2021/12/11 13:09:27;;;;;;;17.37;7.00;;;;;;;4.94;100.00;101018.63;31349203;28;20785;-77
2021/12/11 13:24:29;;;;;;;21.27;8.10;;;;;;;4.72;100.00;101043.59;31299354;28;20107;-76
2021/12/11 13:39:31;;;;;;;17.83;8.27;;;;;;;4.55;100.00;101038.63;31286869;28;20080;-75
2021/12/11 13:54:35;;;;;;;15.27;7.83;;;;;;;4.35;100.00;101027.88;31269427;28;20060;-77
2021/12/11 14:09:52;;;;;;;14.77;6.77;;;;;;;4.23;100.00;101054.13;31291498;28;20049;-77
2021/12/11 14:24:54;;;;;;;;;;;;;;;4.02;100.00;101075.91;31303958;28;20057;-74
2021/12/11 14:39:56;;;;;;;15.97;7.77;;;;;;;3.94;100.00;101096.47;31320665;28;19924;-75
2021/12/11 14:55:03;;;;;;;16.00;7.03;;;;;;;3.74;100.00;101102.91;31312742;28;20414;-74
2021/12/11 15:10:11;;;;;;;25.87;8.77;;;;;;;3.58;100.00;101105.56;31372632;28;20045;-73
2021/12/11 15:25:14;;;;;;;13.70;6.77;;;;;;;3.57;100.00;101120.13;31329876;28;20056;-75
2021/12/11 15:40:21;;;;;;;18.80;8.97;;;;;;;3.54;100.00;101145.00;31380946;28;20465;-74
2021/12/11 15:55:24;;;;;;;19.40;7.87;;;;;;;3.42;100.00;101161.16;31333440;28;20053;-76
2021/12/11 16:10:29;;;;;;;21.33;7.57;;;;;;;3.33;100.00;101198.09;31346211;28;20084;-74
2021/12/11 16:25:32;;;;;;;17.63;6.97;;;;;;;3.25;100.00;101197.16;31310050;28;20139;-74
2021/12/11 16:40:39;;;;;;;19.93;8.00;;;;;;;3.17;100.00;101206.13;31338627;28;20063;-77
2021/12/11 16:55:41;;;;;;;17.80;7.77;;;;;;;3.06;100.00;101213.88;31317843;28;20059;-75
2021/12/11 17:10:50;;;;;;;19.23;7.60;;;;;;;3.02;100.00;101207.63;31320691;28;20048;-77
2021/12/11 17:25:59;;;;;;;21.00;7.60;;;;;;;2.98;100.00;101222.84;31315877;28;20045;-78
2021/12/11 17:41:04;;;;;;;19.03;6.40;;;;;;;2.85;100.00;101197.16;31297269;28;20503;-78
2021/12/11 17:56:10;;;;;;;35.33;9.00;;;;;;;2.72;100.00;101235.84;31297716;28;20055;-78
2021/12/11 18:11:33;;;;;;;27.13;10.02;;;;;;;2.68;100.00;101225.00;31311562;28;20113;-78
2021/12/11 18:26:37;;;;;;;29.87;10.80;;;;;;;2.49;100.00;101238.22;31371546;28;20429;-78
2021/12/11 18:41:40;;;;;;;19.20;7.90;;;;;;;2.44;100.00;101243.00;31333798;28;20522;-79
2021/12/11 18:56:45;;;;;;;20.83;7.00;;;;;;;2.37;100.00;101247.03;31357364;28;20045;-79
2021/12/11 19:11:55;;;;;;;26.67;11.10;;;;;;;2.36;100.00;101242.78;31324156;28;20045;-79
2021/12/11 19:27:01;;;;;;;33.83;11.47;;;;;;;2.31;100.00;101285.91;31349986;28;20083;-81
2021/12/11 19:42:04;;;;;;;28.23;10.90;;;;;;;2.28;100.00;101291.94;31309291;28;20061;-81
2021/12/11 19:57:09;;;;;;;16.60;7.60;;;;;;;2.32;100.00;101290.16;31317284;28;20049;-82
2021/12/11 20:12:14;;;;;;;41.47;12.07;;;;;;;2.33;100.00;101315.03;31320795;28;20056;-79
2021/12/11 20:27:19;;;;;;;54.53;13.63;;;;;;;2.29;100.00;101293.50;31301916;28;20417;-79
2021/12/11 20:42:25;;;;;;;55.63;14.20;;;;;;;2.27;100.00;101317.16;31314953;28;20140;-77
2021/12/11 20:57:27;;;;;;;62.77;13.10;;;;;;;2.27;100.00;101338.59;31332981;28;20112;-78
2021/12/11 21:12:35;;;;;;;80.40;14.80;;;;;;;2.17;100.00;101333.63;31334261;28;20087;-80
2021/12/11 21:27:41;;;;;;;60.27;14.83;;;;;;;2.16;100.00;101329.41;31323477;28;20417;-79
2021/12/11 21:42:49;;;;;;;37.17;12.83;;;;;;;2.12;100.00;101351.84;31349858;28;20075;-78
2021/12/11 21:57:53;;;;;;;62.30;15.33;;;;;;;2.10;100.00;101354.06;31328984;28;20744;-77
2021/12/11 22:12:56;;;;;;;54.43;12.50;;;;;;;2.10;100.00;101354.84;31341390;28;20427;-81
2021/12/11 22:27:59;;;;;;;73.77;13.13;;;;;;;2.07;100.00;101368.91;31289338;28;20060;-79
2021/12/11 22:43:03;;;;;;;78.87;16.10;;;;;;;1.99;100.00;101354.47;31285434;28;20053;-78
2021/12/11 22:58:09;;;;;;;43.93;12.70;;;;;;;1.99;100.00;101353.69;31299678;28;20042;-78
2021/12/11 23:13:17;;;;;;;;;;;;;;;1.92;100.00;101383.66;31285676;28;20045;-78
2021/12/11 23:28:28;;;;;;;40.87;12.10;;;;;;;1.96;100.00;101391.81;31307574;28;19925;-79
2021/12/11 23:43:37;;;;;;;53.93;13.70;;;;;;;1.89;100.00;101396.94;31304823;28;20055;-77
2021/12/11 23:58:43;;;;;;;44.90;10.73;;;;;;;1.74;100.00;101421.63;31279977;28;20053;-77
